Meteorología y climatología de Navarra
Datos de la estación - Meteo Navarra

Estación de Sartaguda GN

Altitud 310 m.


Datos desde el 02/08/2020 hasta el 03/08/2020 en horario solar
Los datos son PROVISIONALES

Anterior Página 1 de 1 Siguiente Descargar: Formato para Excel 2000 o superior   Formato csv   Formato para OpenOffice Calc
Fecha Temperatura Humedad relativa Radiación global Insolación Precipitación Vel. viento 10 m Vel. viento 10 m Dir. viento 10 m
ºC % W/m² s l/m² m/s km/h º
02/08/2020 0:00 21.3 72 0.0 0 0.0 2.3 8.3 305
02/08/2020 0:10 21.2 72 0.0 0 0.0 3.0 10.9 312
02/08/2020 0:20 21.2 72 0.0 0 0.0 2.6 9.4 309
02/08/2020 0:30 21.1 73 0.0 0 0.0 2.4 8.8 322
02/08/2020 0:40 21.0 73 0.0 0 0.0 2.7 9.6 309
02/08/2020 0:50 21.0 73 0.0 0 0.0 2.8 10.2 301
02/08/2020 1:00 20.9 74 0.0 0 0.0 2.8 10.2 297
02/08/2020 1:10 20.7 74 0.0 0 0.0 2.5 9.0 301
02/08/2020 1:20 20.6 74 0.0 0 0.0 2.6 9.3 307
02/08/2020 1:30 20.5 74 0.0 0 0.0 2.8 10.2 319
02/08/2020 1:40 20.3 74 0.0 0 0.0 2.8 9.9 310
02/08/2020 1:50 20.3 74 0.0 0 0.0 2.7 9.5 313
02/08/2020 2:00 20.3 74 0.0 0 0.0 2.8 10.2 315
02/08/2020 2:10 20.4 73 0.0 0 0.0 3.5 12.5 329
02/08/2020 2:20 20.4 72 0.0 0 0.0 2.9 10.5 328
02/08/2020 2:30 20.3 71 0.0 0 0.0 2.9 10.6 319
02/08/2020 2:40 20.3 72 0.0 0 0.0 2.6 9.2 324
02/08/2020 2:50 20.2 71 0.0 0 0.0 1.9 6.8 310
02/08/2020 3:00 20.2 71 0.0 0 0.0 2.0 7.2 304
02/08/2020 3:10 20.1 71 0.0 0 0.0 1.9 6.8 286
02/08/2020 3:20 19.9 73 0.0 0 0.0 2.0 7.1 281
02/08/2020 3:30 19.8 73 0.0 0 0.0 2.1 7.5 290
02/08/2020 3:40 19.8 73 0.0 0 0.0 1.8 6.6 306
02/08/2020 3:50 19.8 73 0.0 0 0.0 1.9 6.7 298
02/08/2020 4:00 19.7 73 0.0 0 0.0 1.6 5.7 303
02/08/2020 4:10 19.7 73 0.0 0 0.0 1.7 6.2 300
02/08/2020 4:20 19.8 73 0.0 0 0.0 1.9 6.9 305
02/08/2020 4:30 19.8 73 0.0 0 0.0 1.8 6.6 292
02/08/2020 4:40 19.8 73 0.0 0 0.0 2.2 7.8 303
02/08/2020 4:50 19.7 74 0.0 0 0.0 1.8 6.6 297
02/08/2020 5:00 19.7 74 0.0 0 0.0 2.1 7.5 300
02/08/2020 5:10 19.7 74 0.0 0 0.0 1.9 6.7 306
02/08/2020 5:20 19.7 73 16.8 66 0.0 2.5 9.0 297
02/08/2020 5:30 19.8 73 46.1 600 0.0 2.5 8.8 299
02/08/2020 5:40 19.9 73 78.5 600 0.0 2.4 8.6 300
02/08/2020 5:50 20.1 73 107.9 600 0.0 2.6 9.3 300
02/08/2020 6:00 20.2 73 112.7 600 0.0 2.3 8.2 298
02/08/2020 6:10 20.2 73 136.1 600 0.0 2.3 8.4 306
02/08/2020 6:20 20.2 71 166.0 600 0.0 3.2 11.7 312
02/08/2020 6:30 20.4 71 205.4 600 0.0 2.7 9.8 315
02/08/2020 6:40 20.7 70 220.9 506 0.0 3.0 10.8 318
02/08/2020 6:50 20.8 69 284.5 586 0.0 2.7 9.7 306
02/08/2020 7:00 21.1 68 333.9 600 0.0 3.4 12.1 316
02/08/2020 7:10 21.4 67 344.3 592 0.0 3.4 12.1 315
02/08/2020 7:20 21.1 66 212.9 314 0.0 3.3 11.7 311
02/08/2020 7:30 21.1 66 303.0 600 0.0 4.2 15.2 322
02/08/2020 7:40 21.1 66 271.2 460 0.0 3.6 13.1 320
02/08/2020 7:50 21.2 66 274.8 446 0.0 3.6 12.8 335
02/08/2020 8:00 21.4 65 345.6 600 0.0 4.6 16.4 344
02/08/2020 8:10 21.5 64 349.4 600 0.0 4.8 17.1 346
02/08/2020 8:20 21.6 64 376.6 600 0.0 4.0 14.2 340
02/08/2020 8:30 22.0 63 367.5 394 0.0 3.8 13.7 337
02/08/2020 8:40 21.9 62 297.0 136 0.0 3.3 11.8 331
02/08/2020 8:50 22.2 61 415.9 534 0.0 3.4 12.2 335
02/08/2020 9:00 22.3 61 338.9 116 0.0 4.2 15.2 345
02/08/2020 9:10 22.2 61 260.8 0 0.0 3.5 12.7 334
02/08/2020 9:20 22.2 61 241.2 0 0.0 3.8 13.7 325
02/08/2020 9:30 22.0 61 282.0 104 0.0 3.6 12.8 326
02/08/2020 9:40 22.4 61 340.0 26 0.0 3.5 12.6 313
02/08/2020 9:50 22.4 61 339.1 0 0.0 3.0 10.7 311
02/08/2020 10:00 22.4 61 226.9 0 0.0 3.0 10.6 315
02/08/2020 10:10 22.1 61 152.4 0 0.0 3.1 11.0 305
02/08/2020 10:20 21.9 61 133.5 0 0.0 3.7 13.4 332
02/08/2020 10:30 21.6 62 113.9 0 0.0 4.8 17.4 342
02/08/2020 10:40 21.3 62 128.6 0 0.0 4.6 16.4 340
02/08/2020 10:50 21.2 61 180.0 0 0.0 4.9 17.8 341
02/08/2020 11:00 21.4 61 187.5 0 0.0 3.3 11.8 334
02/08/2020 11:10 21.6 61 233.2 0 0.0 3.9 13.9 330
02/08/2020 11:20 22.1 60 457.9 220 0.0 3.8 13.8 332
02/08/2020 11:30 22.8 59 631.9 600 0.0 3.5 12.7 337
02/08/2020 11:40 23.4 56 535.9 544 0.0 4.6 16.6 334
02/08/2020 11:50 23.3 56 546.3 424 0.0 4.6 16.5 347
02/08/2020 12:00 23.6 55 558.8 432 0.0 4.4 15.8 327
02/08/2020 12:10 23.5 54 376.2 0 0.0 4.1 14.8 332
02/08/2020 12:20 23.3 55 327.4 0 0.0 4.3 15.4 331
02/08/2020 12:30 23.1 55 420.1 114 0.0 4.2 15.0 324
02/08/2020 12:40 23.4 55 818.0 338 0.0 4.2 15.1 328
02/08/2020 12:50 24.4 52 766.7 600 0.0 3.9 14.0 319
02/08/2020 13:00 24.2 52 720.7 600 0.0 4.6 16.6 322
02/08/2020 13:10 24.5 52 810.0 600 0.0 5.0 18.1 339
02/08/2020 13:20 24.7 51 846.0 600 0.0 3.9 14.1 314
02/08/2020 13:30 24.8 50 707.2 600 0.0 3.7 13.4 320
02/08/2020 13:40 25.0 50 388.2 140 0.0 3.6 12.9 320
02/08/2020 13:50 24.3 51 170.9 0 0.0 3.7 13.4 329
02/08/2020 14:00 23.5 54 136.9 0 0.0 5.2 18.8 339
02/08/2020 14:10 23.0 55 142.2 0 0.0 5.0 18.1 344
02/08/2020 14:20 22.8 56 195.7 0 0.0 6.1 21.8 343
02/08/2020 14:30 22.8 56 235.2 0 0.0 5.5 19.7 342
02/08/2020 14:40 22.8 55 277.9 0 0.0 5.8 20.8 347
02/08/2020 14:50 22.6 55 206.0 0 0.0 6.6 23.7 341
02/08/2020 15:00 22.4 57 219.4 0 0.0 4.6 16.4 343
02/08/2020 15:10 22.4 56 213.8 0 0.0 5.0 17.9 343
02/08/2020 15:20 22.4 56 202.2 0 0.0 5.5 19.7 341
02/08/2020 15:30 22.4 55 187.3 0 0.0 5.7 20.4 340
02/08/2020 15:40 22.4 55 186.1 0 0.0 5.6 20.3 341
02/08/2020 15:50 22.7 54 204.1 0 0.0 5.1 18.2 338
02/08/2020 16:00 22.7 55 170.3 0 0.0 5.2 18.8 350
02/08/2020 16:10 22.5 56 130.0 0 0.0 5.3 19.0 0
02/08/2020 16:20 22.3 55 160.7 0 0.0 4.6 16.6 355
02/08/2020 16:30 22.2 56 129.9 0 0.0 4.6 16.5 346
02/08/2020 16:40 22.2 56 140.7 0 0.0 4.4 16.0 354
02/08/2020 16:50 22.2 56 120.2 0 0.0 4.8 17.2 343
02/08/2020 17:00 22.0 55 135.6 0 0.0 4.9 17.5 351
02/08/2020 17:10 22.0 55 129.9 0 0.0 5.3 19.1 349
02/08/2020 17:20 21.8 56 131.5 0 0.0 5.6 20.3 339
02/08/2020 17:30 21.7 55 133.4 0 0.0 5.4 19.3 338
02/08/2020 17:40 21.8 55 196.6 466 0.0 6.2 22.2 342
02/08/2020 17:50 21.9 54 167.1 332 0.0 5.8 20.7 348
02/08/2020 18:00 21.8 53 109.1 0 0.0 5.6 20.3 347
02/08/2020 18:10 21.6 54 87.6 0 0.0 5.5 19.7 347
02/08/2020 18:20 21.5 53 49.8 0 0.0 5.6 20.3 353
02/08/2020 18:30 21.3 53 50.8 0 0.0 5.4 19.4 351
02/08/2020 18:40 21.3 54 38.4 0 0.0 5.3 18.9 340
02/08/2020 18:50 21.1 54 30.5 0 0.0 4.9 17.7 336
02/08/2020 19:00 21.0 56 24.7 0 0.0 4.3 15.4 337
02/08/2020 19:10 20.8 57 17.1 0 0.0 4.7 17.0 339
02/08/2020 19:20 20.6 58 0.0 0 0.0 4.1 14.6 339
02/08/2020 19:30 20.4 59 0.0 0 0.0 3.9 14.0 335
02/08/2020 19:40 20.3 59 0.0 0 0.0 2.6 9.5 328
02/08/2020 19:50 20.1 60 0.0 0 0.0 3.9 13.9 325
02/08/2020 20:00 20.1 61 0.0 0 0.0 4.4 15.8 326
02/08/2020 20:10 20.0 61 0.0 0 0.0 3.8 13.5 323
02/08/2020 20:20 20.0 62 0.0 0 0.0 4.2 15.2 324
02/08/2020 20:30 19.8 62 0.0 0 0.0 3.4 12.2 328
02/08/2020 20:40 19.8 62 0.0 0 0.0 3.5 12.6 330
02/08/2020 20:50 19.6 62 0.0 0 0.0 2.7 9.7 331
02/08/2020 21:00 19.6 62 0.0 0 0.0 2.5 9.1 329
02/08/2020 21:10 19.4 63 0.0 0 0.0 3.0 10.7 330
02/08/2020 21:20 19.3 62 0.0 0 0.0 3.3 11.9 324
02/08/2020 21:30 19.2 62 0.0 0 0.0 3.3 11.7 318
02/08/2020 21:40 19.2 61 0.0 0 0.0 4.0 14.5 324
02/08/2020 21:50 19.2 62 0.0 0 0.0 3.0 10.7 319
02/08/2020 22:00 18.9 63 0.0 0 0.0 2.8 10.0 322
02/08/2020 22:10 19.0 62 0.0 0 0.0 3.5 12.7 320
02/08/2020 22:20 19.0 62 0.0 0 0.0 4.0 14.3 332
02/08/2020 22:30 19.1 62 0.0 0 0.0 3.6 13.0 314
02/08/2020 22:40 19.2 61 0.0 0 0.0 3.5 12.4 305
02/08/2020 22:50 19.0 62 0.0 0 0.0 3.2 11.4 330
02/08/2020 23:00 18.9 64 0.0 0 0.0 3.4 12.2 313
02/08/2020 23:10 18.8 64 0.0 0 0.0 3.8 13.8 316
02/08/2020 23:20 18.7 65 0.0 0 0.0 3.1 11.2 318
02/08/2020 23:30 18.6 66 0.0 0 0.0 2.7 9.7 311
02/08/2020 23:40 18.7 66 0.0 0 0.0 3.8 13.5 313
02/08/2020 23:50 18.6 66 0.0 0 0.0 3.2 11.4 319
Anterior Página 1 de 1 Siguiente

NOTA: Tipo de datos según el color:
   - Valores diarios o 10 minutos correctos
   - Valores diarios calculados a partir de un número de datos 10 minutos menor que 144 y mayor que 120, o de un número de datos semihorarios menor que 48 y mayor que 40 (caso de las estaciones de INTIA y del Ministerio)
   - Valores diez minutos estimados


Contacto        Enlaces        Aviso legal